sensor_id;sensor_type;location;lat;lon;timestamp;P1;durP1;ratioP1;P2;durP2;ratioP2
30133;SDS011;16946;49.984;10.672;2023-07-30T00:00:21;6.53;;;3.10;;
30133;SDS011;16946;49.984;10.672;2023-07-30T00:00:52;3.87;;;3.13;;
30133;SDS011;16946;49.984;10.672;2023-07-30T00:01:22;6.00;;;3.70;;
30133;SDS011;16946;49.984;10.672;2023-07-30T00:01:53;3.80;;;3.00;;
30133;SDS011;16946;49.984;10.672;2023-07-30T00:02:24;5.93;;;3.40;;
30133;SDS011;16946;49.984;10.672;2023-07-30T00:02:54;5.00;;;3.07;;
30133;SDS011;16946;49.984;10.672;2023-07-30T00:03:25;4.63;;;3.40;;
30133;SDS011;16946;49.984;10.672;2023-07-30T00:03:56;6.83;;;3.37;;
30133;SDS011;16946;49.984;10.672;2023-07-30T00:04:26;6.50;;;3.67;;
30133;SDS011;16946;49.984;10.672;2023-07-30T00:04:57;3.73;;;2.83;;
30133;SDS011;16946;49.984;10.672;2023-07-30T00:05:27;7.03;;;3.80;;
30133;SDS011;16946;49.984;10.672;2023-07-30T00:05:58;4.00;;;3.47;;
30133;SDS011;16946;49.984;10.672;2023-07-30T00:06:28;4.87;;;3.40;;
30133;SDS011;16946;49.984;10.672;2023-07-30T00:06:59;4.27;;;3.47;;
30133;SDS011;16946;49.984;10.672;2023-07-30T00:07:30;5.57;;;3.63;;
30133;SDS011;16946;49.984;10.672;2023-07-30T00:08:01;4.03;;;3.37;;
30133;SDS011;16946;49.984;10.672;2023-07-30T00:08:31;5.33;;;3.73;;
30133;SDS011;16946;49.984;10.672;2023-07-30T00:09:02;5.13;;;3.00;;
30133;SDS011;16946;49.984;10.672;2023-07-30T00:09:32;5.77;;;3.13;;
30133;SDS011;16946;49.984;10.672;2023-07-30T00:10:03;6.07;;;3.50;;
30133;SDS011;16946;49.984;10.672;2023-07-30T00:10:35;3.70;;;3.13;;
30133;SDS011;16946;49.984;10.672;2023-07-30T00:11:06;3.90;;;3.40;;
30133;SDS011;16946;49.984;10.672;2023-07-30T00:11:37;3.50;;;2.70;;
30133;SDS011;16946;49.984;10.672;2023-07-30T00:12:08;4.13;;;3.20;;
30133;SDS011;16946;49.984;10.672;2023-07-30T00:12:39;5.60;;;2.90;;
30133;SDS011;16946;49.984;10.672;2023-07-30T00:13:11;5.45;;;2.90;;
30133;SDS011;16946;49.984;10.672;2023-07-30T00:13:41;4.10;;;3.17;;
30133;SDS011;16946;49.984;10.672;2023-07-30T00:14:12;6.33;;;3.10;;
30133;SDS011;16946;49.984;10.672;2023-07-30T00:14:42;3.70;;;2.93;;
30133;SDS011;16946;49.984;10.672;2023-07-30T00:15:13;3.27;;;2.97;;
30133;SDS011;16946;49.984;10.672;2023-07-30T00:15:46;3.03;;;2.67;;
30133;SDS011;16946;49.984;10.672;2023-07-30T00:16:17;5.53;;;2.88;;
30133;SDS011;16946;49.984;10.672;2023-07-30T00:16:48;5.53;;;4.00;;
30133;SDS011;16946;49.984;10.672;2023-07-30T00:17:18;4.37;;;3.40;;
30133;SDS011;16946;49.984;10.672;2023-07-30T00:17:49;4.27;;;3.23;;
30133;SDS011;16946;49.984;10.672;2023-07-30T00:18:19;5.23;;;3.30;;
30133;SDS011;16946;49.984;10.672;2023-07-30T00:18:50;5.43;;;3.50;;
30133;SDS011;16946;49.984;10.672;2023-07-30T00:19:20;4.33;;;3.33;;
30133;SDS011;16946;49.984;10.672;2023-07-30T00:19:51;4.53;;;3.38;;
30133;SDS011;16946;49.984;10.672;2023-07-30T00:20:25;7.07;;;3.72;;
30133;SDS011;16946;49.984;10.672;2023-07-30T00:20:55;4.77;;;3.40;;
30133;SDS011;16946;49.984;10.672;2023-07-30T00:21:26;4.97;;;4.40;;
30133;SDS011;16946;49.984;10.672;2023-07-30T00:21:56;6.07;;;3.90;;
30133;SDS011;16946;49.984;10.672;2023-07-30T00:22:27;4.67;;;3.90;;
30133;SDS011;16946;49.984;10.672;2023-07-30T00:22:57;5.00;;;4.07;;
30133;SDS011;16946;49.984;10.672;2023-07-30T00:23:28;4.93;;;3.93;;
30133;SDS011;16946;49.984;10.672;2023-07-30T00:23:58;7.57;;;3.57;;
30133;SDS011;16946;49.984;10.672;2023-07-30T00:24:29;5.83;;;3.67;;
30133;SDS011;16946;49.984;10.672;2023-07-30T00:24:59;6.60;;;3.77;;
30133;SDS011;16946;49.984;10.672;2023-07-30T00:25:30;3.33;;;2.93;;
30133;SDS011;16946;49.984;10.672;2023-07-30T00:26:01;4.17;;;3.57;;
30133;SDS011;16946;49.984;10.672;2023-07-30T00:26:31;5.57;;;3.30;;
30133;SDS011;16946;49.984;10.672;2023-07-30T00:27:02;4.47;;;3.35;;
30133;SDS011;16946;49.984;10.672;2023-07-30T00:27:33;5.43;;;3.50;;
30133;SDS011;16946;49.984;10.672;2023-07-30T00:28:03;8.33;;;3.40;;
30133;SDS011;16946;49.984;10.672;2023-07-30T00:28:34;4.00;;;2.83;;
30133;SDS011;16946;49.984;10.672;2023-07-30T00:29:04;5.40;;;3.17;;
30133;SDS011;16946;49.984;10.672;2023-07-30T00:29:35;5.27;;;3.50;;
30133;SDS011;16946;49.984;10.672;2023-07-30T00:30:06;3.80;;;3.47;;
30133;SDS011;16946;49.984;10.672;2023-07-30T00:30:37;6.10;;;4.00;;
30133;SDS011;16946;49.984;10.672;2023-07-30T00:31:07;4.13;;;3.53;;
30133;SDS011;16946;49.984;10.672;2023-07-30T00:31:38;6.10;;;3.47;;
30133;SDS011;16946;49.984;10.672;2023-07-30T00:32:08;7.47;;;3.40;;
30133;SDS011;16946;49.984;10.672;2023-07-30T00:32:39;6.93;;;3.30;;
30133;SDS011;16946;49.984;10.672;2023-07-30T00:33:13;4.88;;;3.60;;
30133;SDS011;16946;49.984;10.672;2023-07-30T00:33:43;7.33;;;3.13;;
30133;SDS011;16946;49.984;10.672;2023-07-30T00:34:14;4.47;;;3.10;;
30133;SDS011;16946;49.984;10.672;2023-07-30T00:34:44;5.50;;;3.50;;
30133;SDS011;16946;49.984;10.672;2023-07-30T00:35:15;4.53;;;3.43;;
30133;SDS011;16946;49.984;10.672;2023-07-30T00:35:46;9.43;;;3.27;;
30133;SDS011;16946;49.984;10.672;2023-07-30T00:36:16;6.67;;;3.23;;
30133;SDS011;16946;49.984;10.672;2023-07-30T00:36:47;3.77;;;3.47;;
30133;SDS011;16946;49.984;10.672;2023-07-30T00:37:17;6.10;;;3.70;;
30133;SDS011;16946;49.984;10.672;2023-07-30T00:37:48;3.20;;;2.90;;
30133;SDS011;16946;49.984;10.672;2023-07-30T00:38:19;5.47;;;3.40;;
30133;SDS011;16946;49.984;10.672;2023-07-30T00:38:50;3.40;;;2.67;;
30133;SDS011;16946;49.984;10.672;2023-07-30T00:39:20;4.03;;;3.63;;
30133;SDS011;16946;49.984;10.672;2023-07-30T00:39:51;6.10;;;3.43;;
30133;SDS011;16946;49.984;10.672;2023-07-30T00:40:21;5.43;;;3.27;;
30133;SDS011;16946;49.984;10.672;2023-07-30T00:40:52;4.93;;;3.13;;
30133;SDS011;16946;49.984;10.672;2023-07-30T00:41:22;5.07;;;3.43;;
30133;SDS011;16946;49.984;10.672;2023-07-30T00:41:53;5.97;;;3.60;;
30133;SDS011;16946;49.984;10.672;2023-07-30T00:42:23;3.53;;;3.13;;
30133;SDS011;16946;49.984;10.672;2023-07-30T00:42:54;4.13;;;3.40;;
30133;SDS011;16946;49.984;10.672;2023-07-30T00:43:24;6.33;;;3.20;;
30133;SDS011;16946;49.984;10.672;2023-07-30T00:43:55;8.47;;;3.67;;
30133;SDS011;16946;49.984;10.672;2023-07-30T00:44:26;3.80;;;3.33;;
30133;SDS011;16946;49.984;10.672;2023-07-30T00:44:56;5.63;;;3.40;;
30133;SDS011;16946;49.984;10.672;2023-07-30T00:45:27;4.10;;;3.20;;
30133;SDS011;16946;49.984;10.672;2023-07-30T00:45:57;4.43;;;3.37;;
30133;SDS011;16946;49.984;10.672;2023-07-30T00:46:28;6.67;;;4.20;;
30133;SDS011;16946;49.984;10.672;2023-07-30T00:46:59;6.33;;;5.00;;
30133;SDS011;16946;49.984;10.672;2023-07-30T00:47:29;6.47;;;4.63;;
30133;SDS011;16946;49.984;10.672;2023-07-30T00:48:01;6.68;;;4.13;;
30133;SDS011;16946;49.984;10.672;2023-07-30T00:48:32;5.00;;;3.80;;
30133;SDS011;16946;49.984;10.672;2023-07-30T00:49:03;6.73;;;3.83;;
30133;SDS011;16946;49.984;10.672;2023-07-30T00:49:33;4.23;;;3.83;;
30133;SDS011;16946;49.984;10.672;2023-07-30T00:50:05;6.23;;;3.27;;
30133;SDS011;16946;49.984;10.672;2023-07-30T00:50:36;3.65;;;3.35;;
30133;SDS011;16946;49.984;10.672;2023-07-30T00:51:09;3.75;;;3.10;;
30133;SDS011;16946;49.984;10.672;2023-07-30T00:51:43;6.30;;;4.03;;
30133;SDS011;16946;49.984;10.672;2023-07-30T00:52:15;6.40;;;3.22;;
30133;SDS011;16946;49.984;10.672;2023-07-30T00:52:46;4.57;;;3.47;;
30133;SDS011;16946;49.984;10.672;2023-07-30T00:53:17;5.70;;;3.10;;
30133;SDS011;16946;49.984;10.672;2023-07-30T00:53:51;5.72;;;2.55;;
30133;SDS011;16946;49.984;10.672;2023-07-30T00:54:22;4.20;;;2.90;;
30133;SDS011;16946;49.984;10.672;2023-07-30T00:54:55;3.20;;;2.83;;
30133;SDS011;16946;49.984;10.672;2023-07-30T00:55:27;4.55;;;2.88;;
30133;SDS011;16946;49.984;10.672;2023-07-30T00:55:58;5.60;;;2.70;;
30133;SDS011;16946;49.984;10.672;2023-07-30T00:56:29;6.00;;;2.77;;
30133;SDS011;16946;49.984;10.672;2023-07-30T00:57:00;6.15;;;2.85;;
30133;SDS011;16946;49.984;10.672;2023-07-30T00:57:31;4.97;;;2.63;;
30133;SDS011;16946;49.984;10.672;2023-07-30T00:58:02;3.90;;;2.80;;
30133;SDS011;16946;49.984;10.672;2023-07-30T00:58:34;3.28;;;2.75;;
30133;SDS011;16946;49.984;10.672;2023-07-30T00:59:05;4.55;;;3.63;;
30133;SDS011;16946;49.984;10.672;2023-07-30T00:59:36;3.57;;;2.97;;
30133;SDS011;16946;49.984;10.672;2023-07-30T01:00:07;3.97;;;3.10;;
30133;SDS011;16946;49.984;10.672;2023-07-30T01:00:39;4.32;;;3.00;;
30133;SDS011;16946;49.984;10.672;2023-07-30T01:01:10;3.40;;;2.97;;
30133;SDS011;16946;49.984;10.672;2023-07-30T01:01:42;6.43;;;3.30;;
30133;SDS011;16946;49.984;10.672;2023-07-30T01:02:14;5.93;;;3.35;;
30133;SDS011;16946;49.984;10.672;2023-07-30T01:02:45;7.70;;;3.20;;
30133;SDS011;16946;49.984;10.672;2023-07-30T01:03:16;7.13;;;2.90;;
30133;SDS011;16946;49.984;10.672;2023-07-30T01:03:46;3.37;;;3.07;;
30133;SDS011;16946;49.984;10.672;2023-07-30T01:04:17;5.63;;;2.83;;
30133;SDS011;16946;49.984;10.672;2023-07-30T01:04:48;3.77;;;2.93;;
30133;SDS011;16946;49.984;10.672;2023-07-30T01:05:19;5.13;;;2.80;;
30133;SDS011;16946;49.984;10.672;2023-07-30T01:05:50;6.63;;;3.33;;
30133;SDS011;16946;49.984;10.672;2023-07-30T01:06:21;4.47;;;3.47;;
30133;SDS011;16946;49.984;10.672;2023-07-30T01:06:51;3.13;;;2.83;;
30133;SDS011;16946;49.984;10.672;2023-07-30T01:07:22;3.20;;;2.60;;
30133;SDS011;16946;49.984;10.672;2023-07-30T01:07:53;7.20;;;3.67;;
30133;SDS011;16946;49.984;10.672;2023-07-30T01:08:23;5.43;;;3.03;;
30133;SDS011;16946;49.984;10.672;2023-07-30T01:08:54;6.77;;;3.00;;
30133;SDS011;16946;49.984;10.672;2023-07-30T01:09:24;4.50;;;2.90;;
30133;SDS011;16946;49.984;10.672;2023-07-30T01:09:55;6.77;;;3.37;;
30133;SDS011;16946;49.984;10.672;2023-07-30T01:10:26;4.30;;;3.58;;
30133;SDS011;16946;49.984;10.672;2023-07-30T01:11:00;4.75;;;3.42;;
30133;SDS011;16946;49.984;10.672;2023-07-30T01:11:33;6.90;;;3.35;;
30133;SDS011;16946;49.984;10.672;2023-07-30T01:12:04;3.72;;;3.25;;
30133;SDS011;16946;49.984;10.672;2023-07-30T01:12:36;4.63;;;4.13;;
30133;SDS011;16946;49.984;10.672;2023-07-30T01:13:07;4.50;;;3.47;;
30133;SDS011;16946;49.984;10.672;2023-07-30T01:13:39;5.60;;;4.63;;
30133;SDS011;16946;49.984;10.672;2023-07-30T01:14:11;6.93;;;4.05;;
30133;SDS011;16946;49.984;10.672;2023-07-30T01:14:44;6.03;;;3.88;;
30133;SDS011;16946;49.984;10.672;2023-07-30T01:15:16;8.35;;;3.92;;
30133;SDS011;16946;49.984;10.672;2023-07-30T01:15:47;4.63;;;4.20;;
30133;SDS011;16946;49.984;10.672;2023-07-30T01:16:18;5.57;;;4.20;;
30133;SDS011;16946;49.984;10.672;2023-07-30T01:16:49;5.20;;;3.90;;
30133;SDS011;16946;49.984;10.672;2023-07-30T01:17:19;4.53;;;3.70;;
30133;SDS011;16946;49.984;10.672;2023-07-30T01:17:51;6.68;;;3.83;;
30133;SDS011;16946;49.984;10.672;2023-07-30T01:18:22;3.97;;;3.40;;
30133;SDS011;16946;49.984;10.672;2023-07-30T01:18:52;4.47;;;3.73;;
30133;SDS011;16946;49.984;10.672;2023-07-30T01:19:23;4.23;;;3.83;;
30133;SDS011;16946;49.984;10.672;2023-07-30T01:19:53;7.53;;;3.60;;
30133;SDS011;16946;49.984;10.672;2023-07-30T01:20:32;4.15;;;3.20;;
30133;SDS011;16946;49.984;10.672;2023-07-30T01:21:03;3.55;;;3.25;;
30133;SDS011;16946;49.984;10.672;2023-07-30T01:21:34;5.33;;;3.30;;
30133;SDS011;16946;49.984;10.672;2023-07-30T01:22:05;7.93;;;3.92;;
30133;SDS011;16946;49.984;10.672;2023-07-30T01:22:36;5.07;;;3.70;;
30133;SDS011;16946;49.984;10.672;2023-07-30T01:23:06;4.97;;;3.70;;
30133;SDS011;16946;49.984;10.672;2023-07-30T01:23:37;4.67;;;3.80;;
30133;SDS011;16946;49.984;10.672;2023-07-30T01:24:07;7.97;;;3.67;;
30133;SDS011;16946;49.984;10.672;2023-07-30T01:24:38;3.87;;;3.23;;
30133;SDS011;16946;49.984;10.672;2023-07-30T01:25:08;4.70;;;4.17;;
30133;SDS011;16946;49.984;10.672;2023-07-30T01:25:39;4.27;;;3.50;;
30133;SDS011;16946;49.984;10.672;2023-07-30T01:26:12;3.90;;;3.40;;
30133;SDS011;16946;49.984;10.672;2023-07-30T01:26:53;5.80;;;3.50;;
30133;SDS011;16946;49.984;10.672;2023-07-30T01:27:30;5.97;;;3.42;;
30133;SDS011;16946;49.984;10.672;2023-07-30T01:28:04;4.60;;;3.00;;
30133;SDS011;16946;49.984;10.672;2023-07-30T01:28:36;4.30;;;3.58;;
30133;SDS011;16946;49.984;10.672;2023-07-30T01:29:17;3.25;;;2.95;;
30133;SDS011;16946;49.984;10.672;2023-07-30T01:30:41;3.28;;;2.90;;
30133;SDS011;16946;49.984;10.672;2023-07-30T01:31:16;4.53;;;3.20;;
30133;SDS011;16946;49.984;10.672;2023-07-30T01:31:48;4.03;;;3.15;;
30133;SDS011;16946;49.984;10.672;2023-07-30T01:32:33;4.93;;;3.13;;
30133;SDS011;16946;49.984;10.672;2023-07-30T01:33:04;6.22;;;3.70;;
30133;SDS011;16946;49.984;10.672;2023-07-30T01:33:35;6.57;;;3.22;;
30133;SDS011;16946;49.984;10.672;2023-07-30T01:34:09;7.70;;;3.60;;
30133;SDS011;16946;49.984;10.672;2023-07-30T01:34:42;3.50;;;3.15;;
30133;SDS011;16946;49.984;10.672;2023-07-30T01:35:16;3.83;;;3.00;;
30133;SDS011;16946;49.984;10.672;2023-07-30T01:35:50;4.28;;;2.90;;
30133;SDS011;16946;49.984;10.672;2023-07-30T01:36:21;5.95;;;3.17;;
30133;SDS011;16946;49.984;10.672;2023-07-30T01:36:53;4.33;;;2.87;;
30133;SDS011;16946;49.984;10.672;2023-07-30T01:37:24;4.13;;;2.92;;
30133;SDS011;16946;49.984;10.672;2023-07-30T01:37:56;5.63;;;3.50;;
30133;SDS011;16946;49.984;10.672;2023-07-30T01:38:27;5.95;;;3.05;;
30133;SDS011;16946;49.984;10.672;2023-07-30T01:38:59;6.60;;;3.22;;
30133;SDS011;16946;49.984;10.672;2023-07-30T01:39:30;3.42;;;2.90;;
30133;SDS011;16946;49.984;10.672;2023-07-30T01:40:02;5.45;;;3.10;;
30133;SDS011;16946;49.984;10.672;2023-07-30T01:40:33;5.35;;;2.83;;
30133;SDS011;16946;49.984;10.672;2023-07-30T01:41:04;3.97;;;2.80;;
30133;SDS011;16946;49.984;10.672;2023-07-30T01:41:35;4.20;;;3.13;;
30133;SDS011;16946;49.984;10.672;2023-07-30T01:42:06;6.17;;;2.90;;
30133;SDS011;16946;49.984;10.672;2023-07-30T01:42:36;4.67;;;2.90;;
30133;SDS011;16946;49.984;10.672;2023-07-30T01:43:07;4.13;;;2.80;;
30133;SDS011;16946;49.984;10.672;2023-07-30T01:43:37;5.93;;;3.20;;
30133;SDS011;16946;49.984;10.672;2023-07-30T01:44:08;5.77;;;3.43;;
30133;SDS011;16946;49.984;10.672;2023-07-30T01:44:39;8.97;;;2.80;;
30133;SDS011;16946;49.984;10.672;2023-07-30T01:45:09;4.53;;;2.60;;
30133;SDS011;16946;49.984;10.672;2023-07-30T01:45:40;8.10;;;3.13;;
30133;SDS011;16946;49.984;10.672;2023-07-30T01:46:11;4.10;;;2.87;;
30133;SDS011;16946;49.984;10.672;2023-07-30T01:46:41;4.07;;;2.73;;
30133;SDS011;16946;49.984;10.672;2023-07-30T01:47:12;4.03;;;3.03;;
30133;SDS011;16946;49.984;10.672;2023-07-30T01:47:43;5.40;;;3.80;;
30133;SDS011;16946;49.984;10.672;2023-07-30T01:48:13;6.80;;;3.20;;
30133;SDS011;16946;49.984;10.672;2023-07-30T01:48:44;4.17;;;3.17;;
30133;SDS011;16946;49.984;10.672;2023-07-30T01:49:15;3.77;;;2.90;;
30133;SDS011;16946;49.984;10.672;2023-07-30T01:49:45;3.03;;;2.77;;
30133;SDS011;16946;49.984;10.672;2023-07-30T01:50:16;5.13;;;3.00;;
30133;SDS011;16946;49.984;10.672;2023-07-30T01:50:46;3.13;;;2.83;;
30133;SDS011;16946;49.984;10.672;2023-07-30T01:51:18;3.17;;;2.80;;
30133;SDS011;16946;49.984;10.672;2023-07-30T01:51:49;4.93;;;2.93;;
30133;SDS011;16946;49.984;10.672;2023-07-30T01:52:20;2.93;;;2.53;;
30133;SDS011;16946;49.984;10.672;2023-07-30T01:52:50;2.97;;;2.57;;
30133;SDS011;16946;49.984;10.672;2023-07-30T01:53:21;5.77;;;3.37;;
30133;SDS011;16946;49.984;10.672;2023-07-30T01:53:51;3.40;;;3.10;;
30133;SDS011;16946;49.984;10.672;2023-07-30T01:54:22;3.43;;;2.53;;
30133;SDS011;16946;49.984;10.672;2023-07-30T01:54:52;3.60;;;3.10;;
30133;SDS011;16946;49.984;10.672;2023-07-30T01:55:23;4.37;;;2.53;;
30133;SDS011;16946;49.984;10.672;2023-07-30T01:55:53;5.77;;;3.20;;
30133;SDS011;16946;49.984;10.672;2023-07-30T01:56:24;4.47;;;3.10;;
30133;SDS011;16946;49.984;10.672;2023-07-30T01:56:54;5.07;;;3.17;;
30133;SDS011;16946;49.984;10.672;2023-07-30T01:57:25;8.40;;;2.90;;
30133;SDS011;16946;49.984;10.672;2023-07-30T01:57:56;3.70;;;3.10;;
30133;SDS011;16946;49.984;10.672;2023-07-30T01:58:26;5.13;;;3.30;;
30133;SDS011;16946;49.984;10.672;2023-07-30T01:58:57;3.73;;;2.80;;
30133;SDS011;16946;49.984;10.672;2023-07-30T01:59:28;3.63;;;3.23;;
30133;SDS011;16946;49.984;10.672;2023-07-30T01:59:58;4.83;;;3.20;;
30133;SDS011;16946;49.984;10.672;2023-07-30T02:00:29;5.23;;;3.33;;
30133;SDS011;16946;49.984;10.672;2023-07-30T02:00:59;3.67;;;3.30;;
30133;SDS011;16946;49.984;10.672;2023-07-30T02:01:30;4.10;;;3.60;;
30133;SDS011;16946;49.984;10.672;2023-07-30T02:02:01;4.67;;;2.80;;
30133;SDS011;16946;49.984;10.672;2023-07-30T02:02:31;3.80;;;2.90;;
30133;SDS011;16946;49.984;10.672;2023-07-30T02:03:02;7.30;;;3.40;;
30133;SDS011;16946;49.984;10.672;2023-07-30T02:03:32;3.97;;;2.97;;
30133;SDS011;16946;49.984;10.672;2023-07-30T02:04:03;4.30;;;3.20;;
30133;SDS011;16946;49.984;10.672;2023-07-30T02:04:34;3.40;;;3.10;;
30133;SDS011;16946;49.984;10.672;2023-07-30T02:05:04;5.07;;;3.57;;
30133;SDS011;16946;49.984;10.672;2023-07-30T02:05:35;4.20;;;3.60;;
30133;SDS011;16946;49.984;10.672;2023-07-30T02:06:06;4.47;;;3.30;;
30133;SDS011;16946;49.984;10.672;2023-07-30T02:06:36;7.20;;;3.50;;
30133;SDS011;16946;49.984;10.672;2023-07-30T02:07:07;6.27;;;3.33;;
30133;SDS011;16946;49.984;10.672;2023-07-30T02:07:37;6.10;;;3.50;;
30133;SDS011;16946;49.984;10.672;2023-07-30T02:08:08;5.97;;;4.40;;
30133;SDS011;16946;49.984;10.672;2023-07-30T02:08:38;6.00;;;3.70;;
30133;SDS011;16946;49.984;10.672;2023-07-30T02:09:09;3.63;;;3.27;;
30133;SDS011;16946;49.984;10.672;2023-07-30T02:09:39;4.80;;;3.70;;
30133;SDS011;16946;49.984;10.672;2023-07-30T02:10:10;5.73;;;3.80;;
30133;SDS011;16946;49.984;10.672;2023-07-30T02:10:41;5.33;;;3.80;;
30133;SDS011;16946;49.984;10.672;2023-07-30T02:11:11;5.20;;;4.20;;
30133;SDS011;16946;49.984;10.672;2023-07-30T02:11:42;5.10;;;3.83;;
30133;SDS011;16946;49.984;10.672;2023-07-30T02:12:13;7.83;;;4.53;;
30133;SDS011;16946;49.984;10.672;2023-07-30T02:12:43;9.70;;;4.10;;
30133;SDS011;16946;49.984;10.672;2023-07-30T02:13:14;4.90;;;4.37;;
30133;SDS011;16946;49.984;10.672;2023-07-30T02:13:44;7.20;;;4.43;;
30133;SDS011;16946;49.984;10.672;2023-07-30T02:14:15;6.80;;;3.70;;
30133;SDS011;16946;49.984;10.672;2023-07-30T02:14:45;5.93;;;3.90;;
30133;SDS011;16946;49.984;10.672;2023-07-30T02:15:16;5.63;;;3.60;;
30133;SDS011;16946;49.984;10.672;2023-07-30T02:15:47;8.60;;;3.80;;
30133;SDS011;16946;49.984;10.672;2023-07-30T02:16:17;4.33;;;3.60;;
30133;SDS011;16946;49.984;10.672;2023-07-30T02:16:48;5.07;;;3.50;;
30133;SDS011;16946;49.984;10.672;2023-07-30T02:17:18;6.03;;;3.73;;
30133;SDS011;16946;49.984;10.672;2023-07-30T02:17:49;7.90;;;4.70;;
30133;SDS011;16946;49.984;10.672;2023-07-30T02:18:19;5.97;;;3.63;;
30133;SDS011;16946;49.984;10.672;2023-07-30T02:18:50;8.53;;;4.03;;
30133;SDS011;16946;49.984;10.672;2023-07-30T02:19:21;6.17;;;4.47;;
30133;SDS011;16946;49.984;10.672;2023-07-30T02:19:51;4.77;;;3.57;;
30133;SDS011;16946;49.984;10.672;2023-07-30T02:20:22;4.77;;;3.90;;
30133;SDS011;16946;49.984;10.672;2023-07-30T02:20:52;6.20;;;4.43;;
30133;SDS011;16946;49.984;10.672;2023-07-30T02:21:23;4.60;;;3.27;;
30133;SDS011;16946;49.984;10.672;2023-07-30T02:21:53;4.20;;;3.63;;
30133;SDS011;16946;49.984;10.672;2023-07-30T02:22:24;6.60;;;3.50;;
30133;SDS011;16946;49.984;10.672;2023-07-30T02:22:54;5.33;;;3.63;;
30133;SDS011;16946;49.984;10.672;2023-07-30T02:23:25;5.30;;;3.63;;
30133;SDS011;16946;49.984;10.672;2023-07-30T02:24:00;5.45;;;4.25;;
30133;SDS011;16946;49.984;10.672;2023-07-30T02:24:31;3.78;;;3.40;;
30133;SDS011;16946;49.984;10.672;2023-07-30T02:25:02;4.60;;;3.63;;
30133;SDS011;16946;49.984;10.672;2023-07-30T02:25:32;6.73;;;3.43;;
30133;SDS011;16946;49.984;10.672;2023-07-30T02:26:03;4.43;;;3.30;;
30133;SDS011;16946;49.984;10.672;2023-07-30T02:26:33;8.33;;;3.97;;
30133;SDS011;16946;49.984;10.672;2023-07-30T02:27:04;4.60;;;3.70;;
30133;SDS011;16946;49.984;10.672;2023-07-30T02:27:35;4.50;;;3.47;;
30133;SDS011;16946;49.984;10.672;2023-07-30T02:28:05;4.20;;;3.57;;
30133;SDS011;16946;49.984;10.672;2023-07-30T02:28:36;6.53;;;4.80;;
30133;SDS011;16946;49.984;10.672;2023-07-30T02:29:06;4.90;;;4.13;;
30133;SDS011;16946;49.984;10.672;2023-07-30T02:29:37;4.27;;;3.50;;
30133;SDS011;16946;49.984;10.672;2023-07-30T02:30:08;4.90;;;3.87;;
30133;SDS011;16946;49.984;10.672;2023-07-30T02:30:38;6.70;;;3.53;;
30133;SDS011;16946;49.984;10.672;2023-07-30T02:31:09;4.67;;;4.03;;
30133;SDS011;16946;49.984;10.672;2023-07-30T02:31:40;6.23;;;3.80;;
30133;SDS011;16946;49.984;10.672;2023-07-30T02:32:10;4.87;;;3.90;;
30133;SDS011;16946;49.984;10.672;2023-07-30T02:32:41;6.60;;;3.57;;
30133;SDS011;16946;49.984;10.672;2023-07-30T02:33:12;5.00;;;4.22;;
30133;SDS011;16946;49.984;10.672;2023-07-30T02:33:42;7.03;;;3.60;;
30133;SDS011;16946;49.984;10.672;2023-07-30T02:34:13;4.60;;;4.20;;
30133;SDS011;16946;49.984;10.672;2023-07-30T02:34:43;6.07;;;3.87;;
30133;SDS011;16946;49.984;10.672;2023-07-30T02:35:14;4.27;;;3.60;;
30133;SDS011;16946;49.984;10.672;2023-07-30T02:35:44;6.20;;;3.87;;
30133;SDS011;16946;49.984;10.672;2023-07-30T02:36:15;4.30;;;3.90;;
30133;SDS011;16946;49.984;10.672;2023-07-30T02:36:46;8.47;;;3.93;;
30133;SDS011;16946;49.984;10.672;2023-07-30T02:37:16;5.10;;;4.23;;
30133;SDS011;16946;49.984;10.672;2023-07-30T02:37:47;7.47;;;3.97;;
30133;SDS011;16946;49.984;10.672;2023-07-30T02:38:18;5.20;;;3.83;;
30133;SDS011;16946;49.984;10.672;2023-07-30T02:38:49;9.37;;;3.50;;
30133;SDS011;16946;49.984;10.672;2023-07-30T02:39:20;4.47;;;3.10;;
30133;SDS011;16946;49.984;10.672;2023-07-30T02:39:50;5.60;;;3.40;;
30133;SDS011;16946;49.984;10.672;2023-07-30T02:40:21;3.97;;;3.60;;
30133;SDS011;16946;49.984;10.672;2023-07-30T02:40:51;4.03;;;3.47;;
30133;SDS011;16946;49.984;10.672;2023-07-30T02:41:22;5.90;;;3.87;;
30133;SDS011;16946;49.984;10.672;2023-07-30T02:41:53;5.50;;;4.23;;
30133;SDS011;16946;49.984;10.672;2023-07-30T02:42:23;5.00;;;3.60;;
30133;SDS011;16946;49.984;10.672;2023-07-30T02:42:54;5.70;;;4.00;;
30133;SDS011;16946;49.984;10.672;2023-07-30T02:43:24;5.23;;;3.47;;
30133;SDS011;16946;49.984;10.672;2023-07-30T02:43:55;6.20;;;3.70;;
30133;SDS011;16946;49.984;10.672;2023-07-30T02:44:25;4.17;;;3.23;;
30133;SDS011;16946;49.984;10.672;2023-07-30T02:44:56;7.53;;;3.70;;
30133;SDS011;16946;49.984;10.672;2023-07-30T02:45:27;4.83;;;3.83;;
30133;SDS011;16946;49.984;10.672;2023-07-30T02:45:57;5.33;;;3.50;;
30133;SDS011;16946;49.984;10.672;2023-07-30T02:46:28;6.50;;;3.60;;
30133;SDS011;16946;49.984;10.672;2023-07-30T02:46:58;5.93;;;3.80;;
30133;SDS011;16946;49.984;10.672;2023-07-30T02:47:29;7.03;;;3.63;;
30133;SDS011;16946;49.984;10.672;2023-07-30T02:47:59;5.17;;;4.07;;
30133;SDS011;16946;49.984;10.672;2023-07-30T02:48:30;4.97;;;3.57;;
30133;SDS011;16946;49.984;10.672;2023-07-30T02:49:00;4.47;;;3.23;;
30133;SDS011;16946;49.984;10.672;2023-07-30T02:49:31;5.53;;;3.77;;
30133;SDS011;16946;49.984;10.672;2023-07-30T02:50:02;5.60;;;4.13;;
30133;SDS011;16946;49.984;10.672;2023-07-30T02:50:34;2.40;;;2.20;;
30133;SDS011;16946;49.984;10.672;2023-07-30T02:51:04;3.43;;;2.33;;
30133;SDS011;16946;49.984;10.672;2023-07-30T02:51:35;5.13;;;2.80;;
30133;SDS011;16946;49.984;10.672;2023-07-30T02:52:06;4.57;;;2.40;;
30133;SDS011;16946;49.984;10.672;2023-07-30T02:52:36;3.97;;;2.60;;
30133;SDS011;16946;49.984;10.672;2023-07-30T02:53:07;4.23;;;2.87;;
30133;SDS011;16946;49.984;10.672;2023-07-30T02:53:37;3.07;;;2.30;;
30133;SDS011;16946;49.984;10.672;2023-07-30T02:54:08;2.67;;;2.23;;
30133;SDS011;16946;49.984;10.672;2023-07-30T02:54:39;3.03;;;2.25;;
30133;SDS011;16946;49.984;10.672;2023-07-30T02:55:10;2.27;;;2.07;;
30133;SDS011;16946;49.984;10.672;2023-07-30T02:55:40;4.47;;;2.53;;
30133;SDS011;16946;49.984;10.672;2023-07-30T02:56:11;3.17;;;2.47;;
30133;SDS011;16946;49.984;10.672;2023-07-30T02:56:42;3.30;;;2.20;;
30133;SDS011;16946;49.984;10.672;2023-07-30T02:57:13;2.90;;;2.58;;
30133;SDS011;16946;49.984;10.672;2023-07-30T02:57:44;3.13;;;2.23;;
30133;SDS011;16946;49.984;10.672;2023-07-30T02:58:15;2.20;;;2.00;;
30133;SDS011;16946;49.984;10.672;2023-07-30T02:58:45;3.30;;;2.30;;
30133;SDS011;16946;49.984;10.672;2023-07-30T02:59:16;3.17;;;2.40;;
30133;SDS011;16946;49.984;10.672;2023-07-30T02:59:46;4.03;;;2.23;;
30133;SDS011;16946;49.984;10.672;2023-07-30T03:00:17;2.87;;;2.20;;
30133;SDS011;16946;49.984;10.672;2023-07-30T03:00:48;2.60;;;2.13;;
30133;SDS011;16946;49.984;10.672;2023-07-30T03:01:18;2.43;;;2.20;;
30133;SDS011;16946;49.984;10.672;2023-07-30T03:01:49;2.57;;;2.30;;
30133;SDS011;16946;49.984;10.672;2023-07-30T03:02:19;2.83;;;2.00;;
30133;SDS011;16946;49.984;10.672;2023-07-30T03:02:50;2.80;;;2.53;;
30133;SDS011;16946;49.984;10.672;2023-07-30T03:03:21;3.27;;;2.40;;
30133;SDS011;16946;49.984;10.672;2023-07-30T03:03:51;3.00;;;2.30;;
30133;SDS011;16946;49.984;10.672;2023-07-30T03:04:22;2.83;;;2.60;;
30133;SDS011;16946;49.984;10.672;2023-07-30T03:04:52;3.50;;;2.80;;